sensor_id;sensor_type;location;lat;lon;timestamp;pressure;altitude;pressure_sealevel;temperature;humidity
43217;BME280;60511;42.686;23.300;2022-12-26T00:00:28;95562.59;;;20.73;31.11
43217;BME280;60511;42.686;23.300;2022-12-26T00:02:29;95493.16;;;20.35;31.14
43217;BME280;60511;42.686;23.300;2022-12-26T00:04:30;95603.81;;;21.00;30.72
43217;BME280;60511;42.686;23.300;2022-12-26T00:06:32;95448.31;;;20.13;31.17
43217;BME280;60511;42.686;23.300;2022-12-26T00:08:32;95554.38;;;20.78;30.86
43217;BME280;60511;42.686;23.300;2022-12-26T00:10:33;95482.25;;;20.40;30.75
43217;BME280;60511;42.686;23.300;2022-12-26T00:12:33;95520.13;;;20.61;31.04
43217;BME280;60511;42.686;23.300;2022-12-26T00:14:34;95591.00;;;21.05;30.78
43217;BME280;60511;42.686;23.300;2022-12-26T00:16:35;95611.09;;;21.08;30.84
43217;BME280;60511;42.686;23.300;2022-12-26T00:18:36;95353.81;;;19.40;31.01
43217;BME280;60511;42.686;23.300;2022-12-26T00:20:37;95518.63;;;20.38;31.00
43217;BME280;60511;42.686;23.300;2022-12-26T00:22:37;95485.69;;;20.23;30.75
43217;BME280;60511;42.686;23.300;2022-12-26T00:24:37;95483.94;;;20.19;30.95
43217;BME280;60511;42.686;23.300;2022-12-26T00:26:38;95607.28;;;20.92;30.88
43217;BME280;60511;42.686;23.300;2022-12-26T00:28:38;95580.94;;;20.80;31.02
43217;BME280;60511;42.686;23.300;2022-12-26T00:30:39;95553.38;;;20.65;31.06
43217;BME280;60511;42.686;23.300;2022-12-26T00:32:39;95585.69;;;20.74;30.95
43217;BME280;60511;42.686;23.300;2022-12-26T00:34:40;95596.38;;;20.97;30.63
43217;BME280;60511;42.686;23.300;2022-12-26T00:36:40;95553.06;;;20.67;30.87
43217;BME280;60511;42.686;23.300;2022-12-26T00:38:41;95623.13;;;21.02;30.93
43217;BME280;60511;42.686;23.300;2022-12-26T00:40:42;95466.78;;;20.06;30.81
43217;BME280;60511;42.686;23.300;2022-12-26T00:42:44;95503.91;;;20.35;30.93
43217;BME280;60511;42.686;23.300;2022-12-26T00:44:44;95485.31;;;20.16;30.86
43217;BME280;60511;42.686;23.300;2022-12-26T00:46:44;95616.19;;;21.01;30.94
43217;BME280;60511;42.686;23.300;2022-12-26T00:48:45;95558.69;;;20.57;30.98
43217;BME280;60511;42.686;23.300;2022-12-26T00:50:45;95517.19;;;20.32;30.84
43217;BME280;60511;42.686;23.300;2022-12-26T00:52:46;95567.63;;;20.66;30.94
43217;BME280;60511;42.686;23.300;2022-12-26T00:54:46;95607.94;;;20.97;30.98
43217;BME280;60511;42.686;23.300;2022-12-26T00:56:46;95472.22;;;20.15;30.88
43217;BME280;60511;42.686;23.300;2022-12-26T00:58:47;95590.31;;;20.82;30.76
43217;BME280;60511;42.686;23.300;2022-12-26T01:00:48;95535.72;;;20.42;31.08
43217;BME280;60511;42.686;23.300;2022-12-26T01:02:48;95574.91;;;20.65;30.75
43217;BME280;60511;42.686;23.300;2022-12-26T01:04:48;95568.59;;;20.70;30.70
43217;BME280;60511;42.686;23.300;2022-12-26T01:06:49;95602.34;;;20.85;30.81
43217;BME280;60511;42.686;23.300;2022-12-26T01:08:49;95528.25;;;20.39;30.88
43217;BME280;60511;42.686;23.300;2022-12-26T01:10:50;95624.25;;;21.01;30.92
43217;BME280;60511;42.686;23.300;2022-12-26T01:12:51;95506.88;;;20.25;30.83
43217;BME280;60511;42.686;23.300;2022-12-26T01:14:54;95578.25;;;20.71;30.99
43217;BME280;60511;42.686;23.300;2022-12-26T01:16:54;95587.91;;;20.72;30.61
43217;BME280;60511;42.686;23.300;2022-12-26T01:18:55;95579.34;;;20.70;30.73
43217;BME280;60511;42.686;23.300;2022-12-26T01:21:00;95655.25;;;20.98;30.65
43217;BME280;60511;42.686;23.300;2022-12-26T01:23:01;95564.66;;;20.45;30.88
43217;BME280;60511;42.686;23.300;2022-12-26T01:25:02;95556.13;;;20.43;31.00
43217;BME280;60511;42.686;23.300;2022-12-26T01:27:02;95491.41;;;19.99;30.63
43217;BME280;60511;42.686;23.300;2022-12-26T01:29:03;95650.97;;;20.97;30.87
43217;BME280;60511;42.686;23.300;2022-12-26T01:31:04;95648.00;;;20.99;30.72
43217;BME280;60511;42.686;23.300;2022-12-26T01:33:05;95525.97;;;20.15;30.84
43217;BME280;60511;42.686;23.300;2022-12-26T01:35:05;95582.44;;;20.55;30.81
43217;BME280;60511;42.686;23.300;2022-12-26T01:37:05;95596.34;;;20.57;30.66
43217;BME280;60511;42.686;23.300;2022-12-26T01:39:06;95496.59;;;19.96;31.04
43217;BME280;60511;42.686;23.300;2022-12-26T01:41:06;95649.72;;;20.95;31.00
43217;BME280;60511;42.686;23.300;2022-12-26T01:43:15;95640.53;;;20.96;30.73
43217;BME280;60511;42.686;23.300;2022-12-26T01:45:31;95616.25;;;20.78;30.60
43217;BME280;60511;42.686;23.300;2022-12-26T01:49:42;95474.34;;;19.95;30.85
43217;BME280;60511;42.686;23.300;2022-12-26T01:51:43;95625.50;;;20.95;30.84
43217;BME280;60511;42.686;23.300;2022-12-26T01:53:49;95616.56;;;20.77;30.89
43217;BME280;60511;42.686;23.300;2022-12-26T01:55:58;95563.28;;;20.47;30.67
43217;BME280;60511;42.686;23.300;2022-12-26T01:58:09;95585.50;;;20.62;30.78
43217;BME280;60511;42.686;23.300;2022-12-26T02:00:12;95621.50;;;20.83;30.87
43217;BME280;60511;42.686;23.300;2022-12-26T02:02:14;95605.31;;;20.75;30.94
43217;BME280;60511;42.686;23.300;2022-12-26T02:04:19;95479.09;;;19.98;30.69
43217;BME280;60511;42.686;23.300;2022-12-26T02:06:39;95599.63;;;20.76;30.57
43217;BME280;60511;42.686;23.300;2022-12-26T02:08:40;95345.91;;;19.12;30.67
43217;BME280;60511;42.686;23.300;2022-12-26T02:10:53;95617.41;;;20.95;30.87
43217;BME280;60511;42.686;23.300;2022-12-26T02:12:56;95506.53;;;20.26;30.82
43217;BME280;60511;42.686;23.300;2022-12-26T02:14:58;95616.78;;;20.98;30.77
43217;BME280;60511;42.686;23.300;2022-12-26T02:16:59;95622.47;;;20.96;30.79
43217;BME280;60511;42.686;23.300;2022-12-26T02:18:59;95556.16;;;20.52;30.65
43217;BME280;60511;42.686;23.300;2022-12-26T02:25:50;95610.91;;;20.96;30.80
43217;BME280;60511;42.686;23.300;2022-12-26T02:43:21;95571.78;;;20.72;30.88
43217;BME280;60511;42.686;23.300;2022-12-26T02:45:41;95609.19;;;21.00;30.70
43217;BME280;60511;42.686;23.300;2022-12-26T02:55:14;95551.09;;;20.50;30.48
43217;BME280;60511;42.686;23.300;2022-12-26T02:57:40;95578.41;;;20.75;30.46
43217;BME280;60511;42.686;23.300;2022-12-26T03:00:10;95601.88;;;20.92;30.77
43217;BME280;60511;42.686;23.300;2022-12-26T03:02:32;95600.13;;;20.87;30.78
43217;BME280;60511;42.686;23.300;2022-12-26T03:04:53;95568.88;;;20.60;30.67
43217;BME280;60511;42.686;23.300;2022-12-26T03:07:19;95572.56;;;20.73;30.63
43217;BME280;60511;42.686;23.300;2022-12-26T03:12:04;95606.66;;;20.95;30.54
43217;BME280;60511;42.686;23.300;2022-12-26T03:14:37;95604.56;;;20.92;30.62
43217;BME280;60511;42.686;23.300;2022-12-26T03:16:41;95519.88;;;20.32;30.73
43217;BME280;60511;42.686;23.300;2022-12-26T03:19:16;95559.63;;;20.52;30.67
43217;BME280;60511;42.686;23.300;2022-12-26T03:21:21;95592.66;;;20.75;30.65
43217;BME280;60511;42.686;23.300;2022-12-26T03:23:23;95560.91;;;20.55;30.75
43217;BME280;60511;42.686;23.300;2022-12-26T03:25:44;95559.47;;;20.48;30.78
43217;BME280;60511;42.686;23.300;2022-12-26T03:28:03;95539.97;;;20.43;30.49
43217;BME280;60511;42.686;23.300;2022-12-26T03:30:04;95630.41;;;20.93;30.57
43217;BME280;60511;42.686;23.300;2022-12-26T03:32:23;95568.88;;;20.60;30.42
43217;BME280;60511;42.686;23.300;2022-12-26T03:34:24;95491.59;;;20.03;30.68
43217;BME280;60511;42.686;23.300;2022-12-26T03:38:38;95633.09;;;20.93;30.73
43217;BME280;60511;42.686;23.300;2022-12-26T03:40:55;95520.44;;;20.20;30.50
43217;BME280;60511;42.686;23.300;2022-12-26T03:43:28;95619.56;;;20.75;30.55
43217;BME280;60511;42.686;23.300;2022-12-26T03:56:26;95621.16;;;20.76;30.48
43217;BME280;60511;42.686;23.300;2022-12-26T03:59:09;95653.97;;;20.87;30.50
43217;BME280;60511;42.686;23.300;2022-12-26T04:01:30;95636.19;;;20.77;30.44
43217;BME280;60511;42.686;23.300;2022-12-26T04:03:53;95593.88;;;20.60;30.37
43217;BME280;60511;42.686;23.300;2022-12-26T04:06:16;95614.81;;;20.72;30.58
43217;BME280;60511;42.686;23.300;2022-12-26T04:08:53;95526.09;;;20.10;30.67
43217;BME280;60511;42.686;23.300;2022-12-26T04:11:16;95611.16;;;20.68;30.58
43217;BME280;60511;42.686;23.300;2022-12-26T04:14:02;95632.13;;;20.89;30.63
43217;BME280;60511;42.686;23.300;2022-12-26T04:16:48;95615.97;;;20.89;30.32
43217;BME280;60511;42.686;23.300;2022-12-26T04:21:36;95633.03;;;20.84;30.72
43217;BME280;60511;42.686;23.300;2022-12-26T04:24:03;95595.50;;;20.70;30.38
43217;BME280;60511;42.686;23.300;2022-12-26T04:26:34;95605.66;;;20.82;30.54
43217;BME280;60511;42.686;23.300;2022-12-26T04:28:54;95624.69;;;20.94;30.28
43217;BME280;60511;42.686;23.300;2022-12-26T04:31:24;95591.66;;;20.62;30.71
43217;BME280;60511;42.686;23.300;2022-12-26T04:33:50;95608.66;;;20.80;30.63
43217;BME280;60511;42.686;23.300;2022-12-26T04:36:18;95555.19;;;20.47;30.45
43217;BME280;60511;42.686;23.300;2022-12-26T04:38:43;95486.72;;;20.05;30.66
43217;BME280;60511;42.686;23.300;2022-12-26T04:41:05;95616.56;;;20.77;30.45
43217;BME280;60511;42.686;23.300;2022-12-26T04:43:26;95568.50;;;20.53;30.53
43217;BME280;60511;42.686;23.300;2022-12-26T04:45:47;95540.41;;;20.27;30.42
43217;BME280;60511;42.686;23.300;2022-12-26T04:47:49;95626.53;;;20.76;30.53
43217;BME280;60511;42.686;23.300;2022-12-26T04:50:08;95607.34;;;20.69;30.29
43217;BME280;60511;42.686;23.300;2022-12-26T04:52:12;95647.16;;;20.90;30.62
43217;BME280;60511;42.686;23.300;2022-12-26T04:54:13;95584.63;;;20.53;30.66
43217;BME280;60511;42.686;23.300;2022-12-26T04:56:14;95604.47;;;20.65;30.47
43217;BME280;60511;42.686;23.300;2022-12-26T04:58:16;95578.56;;;20.38;30.68
43217;BME280;60511;42.686;23.300;2022-12-26T05:00:17;95507.06;;;19.97;30.62
43217;BME280;60511;42.686;23.300;2022-12-26T05:02:17;95525.97;;;20.15;30.54
43217;BME280;60511;42.686;23.300;2022-12-26T05:04:36;95601.00;;;20.65;30.44
43217;BME280;60511;42.686;23.300;2022-12-26T05:06:55;95635.91;;;20.87;30.20
43217;BME280;60511;42.686;23.300;2022-12-26T05:09:17;95607.34;;;20.69;30.24
43217;BME280;60511;42.686;23.300;2022-12-26T05:11:33;95560.97;;;20.32;30.50
43217;BME280;60511;42.686;23.300;2022-12-26T05:13:34;95621.47;;;20.75;30.53
43217;BME280;60511;42.686;23.300;2022-12-26T05:15:35;95614.34;;;20.70;30.25
43217;BME280;60511;42.686;23.300;2022-12-26T05:17:56;95612.72;;;20.60;30.36
43217;BME280;60511;42.686;23.300;2022-12-26T05:20:15;95638.69;;;20.74;30.26
43217;BME280;60511;42.686;23.300;2022-12-26T05:22:32;95682.31;;;20.93;30.18
43217;BME280;60511;42.686;23.300;2022-12-26T05:24:52;95643.28;;;20.73;30.18
43217;BME280;60511;42.686;23.300;2022-12-26T05:27:12;95676.75;;;20.90;30.09
43217;BME280;60511;42.686;23.300;2022-12-26T05:29:33;95649.78;;;20.72;30.60
43217;BME280;60511;42.686;23.300;2022-12-26T05:31:34;95647.41;;;20.71;30.19
43217;BME280;60511;42.686;23.300;2022-12-26T05:33:34;95610.06;;;20.46;30.21
43217;BME280;60511;42.686;23.300;2022-12-26T05:35:53;95626.09;;;20.52;30.41
43217;BME280;60511;42.686;23.300;2022-12-26T05:37:53;95607.38;;;20.46;30.20
43217;BME280;60511;42.686;23.300;2022-12-26T05:39:54;95608.34;;;20.51;30.33
43217;BME280;60511;42.686;23.300;2022-12-26T05:41:54;95660.41;;;20.77;30.36
43217;BME280;60511;42.686;23.300;2022-12-26T05:43:54;95655.50;;;20.79;30.49
43217;BME280;60511;42.686;23.300;2022-12-26T05:45:55;95678.03;;;20.92;30.19
43217;BME280;60511;42.686;23.300;2022-12-26T05:47:59;95675.19;;;20.89;30.34
43217;BME280;60511;42.686;23.300;2022-12-26T05:50:00;95543.47;;;20.12;30.39
43217;BME280;60511;42.686;23.300;2022-12-26T05:52:00;95489.41;;;19.74;30.22
43217;BME280;60511;42.686;23.300;2022-12-26T05:54:01;95589.00;;;20.40;30.17
43217;BME280;60511;42.686;23.300;2022-12-26T05:56:06;95676.75;;;20.90;30.07
43217;BME280;60511;42.686;23.300;2022-12-26T05:58:07;95607.38;;;20.46;30.31
43217;BME280;60511;42.686;23.300;2022-12-26T06:00:08;95616.13;;;20.52;30.22
43217;BME280;60511;42.686;23.300;2022-12-26T06:02:08;95675.19;;;20.89;30.16
43217;BME280;60511;42.686;23.300;2022-12-26T06:04:09;95596.44;;;20.43;30.38
43217;BME280;60511;42.686;23.300;2022-12-26T06:06:09;95615.19;;;20.57;30.30
43217;BME280;60511;42.686;23.300;2022-12-26T06:08:10;95657.59;;;20.82;30.38
43217;BME280;60511;42.686;23.300;2022-12-26T06:10:10;95675.03;;;20.94;30.01
43217;BME280;60511;42.686;23.300;2022-12-26T06:12:11;95612.50;;;20.57;30.25
43217;BME280;60511;42.686;23.300;2022-12-26T06:14:11;95619.75;;;20.47;30.09
43217;BME280;60511;42.686;23.300;2022-12-26T06:16:14;95589.94;;;20.35;30.24
43217;BME280;60511;42.686;23.300;2022-12-26T06:18:14;95549.94;;;20.02;30.26
43217;BME280;60511;42.686;23.300;2022-12-26T06:20:15;95565.53;;;20.23;30.25
43217;BME280;60511;42.686;23.300;2022-12-26T06:22:15;95662.00;;;20.78;30.05
43217;BME280;60511;42.686;23.300;2022-12-26T06:24:15;95574.88;;;20.25;30.38
43217;BME280;60511;42.686;23.300;2022-12-26T06:26:16;95658.34;;;20.74;30.05
43217;BME280;60511;42.686;23.300;2022-12-26T06:28:16;95560.25;;;20.09;30.16
43217;BME280;60511;42.686;23.300;2022-12-26T06:30:17;95605.75;;;20.37;30.42
43217;BME280;60511;42.686;23.300;2022-12-26T06:32:17;95600.25;;;20.42;30.07
43217;BME280;60511;42.686;23.300;2022-12-26T06:34:18;95647.47;;;20.57;30.23
43217;BME280;60511;42.686;23.300;2022-12-26T06:36:22;95706.06;;;20.91;30.11
43217;BME280;60511;42.686;23.300;2022-12-26T06:38:22;95644.28;;;20.55;30.06
43217;BME280;60511;42.686;23.300;2022-12-26T06:40:23;95538.97;;;19.90;30.36
43217;BME280;60511;42.686;23.300;2022-12-26T06:42:23;95546.28;;;19.98;30.12
43217;BME280;60511;42.686;23.300;2022-12-26T06:44:24;95610.16;;;20.33;30.13
43217;BME280;60511;42.686;23.300;2022-12-26T06:46:24;95555.31;;;20.02;30.10
43217;BME280;60511;42.686;23.300;2022-12-26T06:48:25;95577.81;;;20.15;30.28
43217;BME280;60511;42.686;23.300;2022-12-26T06:50:26;95579.25;;;20.13;29.92
43217;BME280;60511;42.686;23.300;2022-12-26T06:52:26;95664.03;;;20.73;30.19
43217;BME280;60511;42.686;23.300;2022-12-26T06:54:27;95651.63;;;20.63;30.21
43217;BME280;60511;42.686;23.300;2022-12-26T06:56:28;95698.31;;;20.98;29.88
43217;BME280;60511;42.686;23.300;2022-12-26T06:58:29;95699.13;;;20.99;30.30
43217;BME280;60511;42.686;23.300;2022-12-26T07:00:29;95630.03;;;20.45;30.28
43217;BME280;60511;42.686;23.300;2022-12-26T07:02:29;95620.31;;;20.36;29.95
43217;BME280;60511;42.686;23.300;2022-12-26T07:04:30;95628.28;;;20.50;30.02
43217;BME280;60511;42.686;23.300;2022-12-26T07:06:32;95702.31;;;21.01;30.22
43217;BME280;60511;42.686;23.300;2022-12-26T07:08:33;95735.22;;;20.98;30.15
43217;BME280;60511;42.686;23.300;2022-12-26T07:10:35;95636.47;;;20.44;30.15
43217;BME280;60511;42.686;23.300;2022-12-26T07:12:36;95659.41;;;20.64;30.17
43217;BME280;60511;42.686;23.300;2022-12-26T07:14:36;95697.69;;;20.93;30.06
43217;BME280;60511;42.686;23.300;2022-12-26T07:16:38;95712.91;;;21.06;29.79
43217;BME280;60511;42.686;23.300;2022-12-26T07:18:39;95736.34;;;21.05;29.93
43217;BME280;60511;42.686;23.300;2022-12-26T07:20:40;95721.97;;;21.10;29.81
43217;BME280;60511;42.686;23.300;2022-12-26T07:22:40;95638.56;;;20.47;30.15
43217;BME280;60511;42.686;23.300;2022-12-26T07:24:40;95711.47;;;21.00;30.17
43217;BME280;60511;42.686;23.300;2022-12-26T07:26:42;95734.03;;;21.13;29.89
43217;BME280;60511;42.686;23.300;2022-12-26T07:28:42;95734.94;;;21.08;29.93
43217;BME280;60511;42.686;23.300;2022-12-26T07:30:49;95722.63;;;21.16;29.96
43217;BME280;60511;42.686;23.300;2022-12-26T07:32:49;95640.75;;;20.68;29.93
43217;BME280;60511;42.686;23.300;2022-12-26T07:34:50;95637.00;;;20.55;29.97
43217;BME280;60511;42.686;23.300;2022-12-26T07:36:50;95686.75;;;20.98;29.68
43217;BME280;60511;42.686;23.300;2022-12-26T07:38:51;95671.69;;;20.88;29.83
43217;BME280;60511;42.686;23.300;2022-12-26T07:40:54;95708.69;;;21.22;30.00
43217;BME280;60511;42.686;23.300;2022-12-26T07:42:55;95601.53;;;20.44;29.80
43217;BME280;60511;42.686;23.300;2022-12-26T07:44:55;95670.00;;;21.01;29.79
43217;BME280;60511;42.686;23.300;2022-12-26T07:46:56;95719.66;;;21.26;29.71
43217;BME280;60511;42.686;23.300;2022-12-26T07:48:57;95719.66;;;21.26;29.70
43217;BME280;60511;42.686;23.300;2022-12-26T07:51:01;95667.44;;;20.96;30.17
43217;BME280;60511;42.686;23.300;2022-12-26T07:53:01;95711.06;;;21.15;30.04
43217;BME280;60511;42.686;23.300;2022-12-26T07:55:02;95708.06;;;21.17;29.96
43217;BME280;60511;42.686;23.300;2022-12-26T07:57:03;95722.03;;;21.27;30.00
43217;BME280;60511;42.686;23.300;2022-12-26T07:59:03;95656.34;;;20.89;30.12
43217;BME280;60511;42.686;23.300;2022-12-26T08:01:04;95721.56;;;21.25;29.85
43217;BME280;60511;42.686;23.300;2022-12-26T08:03:07;95683.97;;;21.12;29.88
43217;BME280;60511;42.686;23.300;2022-12-26T08:05:08;95716.97;;;21.35;29.79
43217;BME280;60511;42.686;23.300;2022-12-26T08:07:08;95645.25;;;20.90;29.79
43217;BME280;60511;42.686;23.300;2022-12-26T08:09:12;95716.50;;;21.33;29.87
43217;BME280;60511;42.686;23.300;2022-12-26T08:11:17;95703.03;;;21.33;30.15
43217;BME280;60511;42.686;23.300;2022-12-26T08:13:17;95666.38;;;21.05;29.86
43217;BME280;60511;42.686;23.300;2022-12-26T08:15:18;95667.50;;;21.04;29.89
43217;BME280;60511;42.686;23.300;2022-12-26T08:17:18;95718.09;;;21.34;29.89
43217;BME280;60511;42.686;23.300;2022-12-26T08:19:18;95683.84;;;21.17;30.09
43217;BME280;60511;42.686;23.300;2022-12-26T08:21:19;95648.09;;;20.85;29.64
43217;BME280;60511;42.686;23.300;2022-12-26T08:23:20;95720.63;;;21.39;29.90
43217;BME280;60511;42.686;23.300;2022-12-26T08:25:20;95743.28;;;21.38;29.72
43217;BME280;60511;42.686;23.300;2022-12-26T08:27:21;95670.59;;;20.98;29.91
43217;BME280;60511;42.686;23.300;2022-12-26T08:29:21;95644.34;;;20.95;30.07
43217;BME280;60511;42.686;23.300;2022-12-26T08:31:22;95680.50;;;21.11;29.88
43217;BME280;60511;42.686;23.300;2022-12-26T08:33:22;95630.50;;;20.79;29.62
43217;BME280;60511;42.686;23.300;2022-12-26T08:35:22;95631.59;;;20.78;29.65
43217;BME280;60511;42.686;23.300;2022-12-26T08:37:23;95648.91;;;20.94;29.73
43217;BME280;60511;42.686;23.300;2022-12-26T08:39:24;95606.69;;;20.63;29.92
43217;BME280;60511;42.686;23.300;2022-12-26T08:41:24;95691.16;;;21.25;29.82
43217;BME280;60511;42.686;23.300;2022-12-26T08:43:24;95723.03;;;21.40;30.03
43217;BME280;60511;42.686;23.300;2022-12-26T08:45:25;95590.94;;;20.48;29.86
43217;BME280;60511;42.686;23.300;2022-12-26T08:47:25;95703.69;;;21.38;29.83
43217;BME280;60511;42.686;23.300;2022-12-26T08:49:26;95432.72;;;19.61;29.87
43217;BME280;60511;42.686;23.300;2022-12-26T08:51:26;95585.97;;;20.64;29.71
43217;BME280;60511;42.686;23.300;2022-12-26T08:53:28;95630.91;;;21.03;29.91
43217;BME280;60511;42.686;23.300;2022-12-26T08:55:29;95584.09;;;20.64;29.88
43217;BME280;60511;42.686;23.300;2022-12-26T08:57:29;95583.44;;;20.67;30.03
43217;BME280;60511;42.686;23.300;2022-12-26T08:59:30;95620.53;;;20.88;30.11
43217;BME280;60511;42.686;23.300;2022-12-26T09:01:30;95618.81;;;20.92;30.04
43217;BME280;60511;42.686;23.300;2022-12-26T09:03:31;95636.16;;;21.09;29.96
43217;BME280;60511;42.686;23.300;2022-12-26T09:05:31;95621.69;;;20.96;29.83
43217;BME280;60511;42.686;23.300;2022-12-26T09:07:32;95564.88;;;20.57;29.92
43217;BME280;60511;42.686;23.300;2022-12-26T09:09:32;95689.00;;;21.44;29.67
43217;BME280;60511;42.686;23.300;2022-12-26T09:11:33;95663.88;;;21.26;29.84
43217;BME280;60511;42.686;23.300;2022-12-26T09:13:34;95700.72;;;21.49;29.81
43217;BME280;60511;42.686;23.300;2022-12-26T09:15:34;95693.78;;;21.48;29.75
43217;BME280;60511;42.686;23.300;2022-12-26T09:17:35;95697.25;;;21.48;29.62
43217;BME280;60511;42.686;23.300;2022-12-26T09:19:35;95695.34;;;21.49;29.87
43217;BME280;60511;42.686;23.300;2022-12-26T09:21:36;95613.13;;;20.94;29.68
43217;BME280;60511;42.686;23.300;2022-12-26T09:23:37;95687.56;;;21.47;29.89
43217;BME280;60511;42.686;23.300;2022-12-26T09:25:38;95619.81;;;21.05;29.86
43217;BME280;60511;42.686;23.300;2022-12-26T09:27:39;95633.47;;;21.09;30.06
43217;BME280;60511;42.686;23.300;2022-12-26T09:29:40;95616.00;;;20.97;29.74
43217;BME280;60511;42.686;23.300;2022-12-26T09:31:40;95653.16;;;21.35;29.78
43217;BME280;60511;42.686;23.300;2022-12-26T09:33:41;95684.75;;;21.52;29.99
43217;BME280;60511;42.686;23.300;2022-12-26T09:35:42;95647.91;;;21.21;29.78
43217;BME280;60511;42.686;23.300;2022-12-26T09:37:42;95565.13;;;20.78;29.96
43217;BME280;60511;42.686;23.300;2022-12-26T09:39:42;95449.22;;;20.00;29.98
43217;BME280;60511;42.686;23.300;2022-12-26T09:46:09;95662.97;;;21.31;29.65
43217;BME280;60511;42.686;23.300;2022-12-26T09:48:30;95590.34;;;20.91;29.94
43217;BME280;60511;42.686;23.300;2022-12-26T09:50:35;95668.88;;;21.51;29.75
43217;BME280;60511;42.686;23.300;2022-12-26T09:54:59;95626.81;;;21.15;29.85
43217;BME280;60511;42.686;23.300;2022-12-26T09:57:02;95665.88;;;21.52;29.88
43217;BME280;60511;42.686;23.300;2022-12-26T09:59:16;95650.00;;;21.42;29.90
43217;BME280;60511;42.686;23.300;2022-12-26T10:01:20;95669.66;;;21.51;30.07
43217;BME280;60511;42.686;23.300;2022-12-26T10:03:23;95548.66;;;20.71;29.84
43217;BME280;60511;42.686;23.300;2022-12-26T10:05:58;95607.81;;;21.20;29.91
43217;BME280;60511;42.686;23.300;2022-12-26T10:10:51;95650.19;;;21.54;29.90
43217;BME280;60511;42.686;23.300;2022-12-26T10:13:19;95647.03;;;21.52;29.84
43217;BME280;60511;42.686;23.300;2022-12-26T10:15:50;95646.84;;;21.49;30.04
43217;BME280;60511;42.686;23.300;2022-12-26T10:22:27;95605.78;;;21.25;29.98
43217;BME280;60511;42.686;23.300;2022-12-26T10:24:33;95580.41;;;21.09;29.82
43217;BME280;60511;42.686;23.300;2022-12-26T10:26:38;95567.56;;;21.06;29.97
43217;BME280;60511;42.686;23.300;2022-12-26T10:28:52;95602.91;;;21.31;29.61
43217;BME280;60511;42.686;23.300;2022-12-26T10:30:57;95485.59;;;20.55;29.93
43217;BME280;60511;42.686;23.300;2022-12-26T10:33:03;95637.69;;;21.50;30.13
43217;BME280;60511;42.686;23.300;2022-12-26T10:35:34;95585.19;;;21.21;30.08
43217;BME280;60511;42.686;23.300;2022-12-26T10:37:39;95594.34;;;21.28;29.83
43217;BME280;60511;42.686;23.300;2022-12-26T10:39:47;95621.81;;;21.57;29.71
43217;BME280;60511;42.686;23.300;2022-12-26T10:41:54;95626.13;;;21.58;29.61
43217;BME280;60511;42.686;23.300;2022-12-26T10:43:56;95531.31;;;20.95;29.93
43217;BME280;60511;42.686;23.300;2022-12-26T10:48:26;95568.22;;;21.20;29.91
43217;BME280;60511;42.686;23.300;2022-12-26T10:50:30;95512.28;;;20.82;30.03
43217;BME280;60511;42.686;23.300;2022-12-26T10:52:36;95523.72;;;20.97;30.00
43217;BME280;60511;42.686;23.300;2022-12-26T10:54:38;95596.91;;;21.34;30.01
43217;BME280;60511;42.686;23.300;2022-12-26T10:56:38;95442.88;;;20.44;30.06
43217;BME280;60511;42.686;23.300;2022-12-26T10:58:40;95613.91;;;21.52;29.98
43217;BME280;60511;42.686;23.300;2022-12-26T11:00:40;95514.81;;;20.87;30.25
43217;BME280;60511;42.686;23.300;2022-12-26T11:02:40;95526.72;;;20.95;30.23
43217;BME280;60511;42.686;23.300;2022-12-26T11:07:07;95540.19;;;21.13;30.10
43217;BME280;60511;42.686;23.300;2022-12-26T11:09:42;95590.13;;;21.62;30.12
43217;BME280;60511;42.686;23.300;2022-12-26T11:11:47;95562.22;;;21.32;29.98
43217;BME280;60511;42.686;23.300;2022-12-26T11:13:59;95566.66;;;21.37;30.01
43217;BME280;60511;42.686;23.300;2022-12-26T11:16:00;95557.63;;;21.33;30.27
43217;BME280;60511;42.686;23.300;2022-12-26T11:18:21;95574.94;;;21.58;29.76
43217;BME280;60511;42.686;23.300;2022-12-26T11:20:28;95580.16;;;21.54;30.18
43217;BME280;60511;42.686;23.300;2022-12-26T11:22:29;95576.50;;;21.59;29.82
43217;BME280;60511;42.686;23.300;2022-12-26T11:24:29;95511.69;;;21.12;30.08
43217;BME280;60511;42.686;23.300;2022-12-26T11:26:29;95438.19;;;20.67;30.20
43217;BME280;60511;42.686;23.300;2022-12-26T11:28:32;95568.13;;;21.52;30.20
43217;BME280;60511;42.686;23.300;2022-12-26T11:30:37;95544.00;;;21.38;30.00
43217;BME280;60511;42.686;23.300;2022-12-26T11:32:38;95571.59;;;21.61;30.05
43217;BME280;60511;42.686;23.300;2022-12-26T11:34:44;95564.78;;;21.63;29.90
43217;BME280;60511;42.686;23.300;2022-12-26T11:36:48;95466.72;;;20.95;29.82
43217;BME280;60511;42.686;23.300;2022-12-26T11:40:53;95383.88;;;20.39;30.10
43217;BME280;60511;42.686;23.300;2022-12-26T11:43:14;95556.38;;;21.56;30.04
43217;BME280;60511;42.686;23.300;2022-12-26T11:45:23;95492.06;;;21.11;30.07
43217;BME280;60511;42.686;23.300;2022-12-26T11:47:27;95512.00;;;21.27;30.34
43217;BME280;60511;42.686;23.300;2022-12-26T11:49:53;95549.41;;;21.55;30.21
43217;BME280;60511;42.686;23.300;2022-12-26T11:51:59;95420.63;;;20.79;29.93
43217;BME280;60511;42.686;23.300;2022-12-26T11:56:27;95458.78;;;20.98;30.20
43217;BME280;60511;42.686;23.300;2022-12-26T11:58:29;95537.06;;;21.45;29.90
43217;BME280;60511;42.686;23.300;2022-12-26T12:00:32;95554.66;;;21.60;29.96
43217;BME280;60511;42.686;23.300;2022-12-26T12:02:34;95484.16;;;21.15;29.80
43217;BME280;60511;42.686;23.300;2022-12-26T12:04:35;95507.09;;;21.21;30.14
43217;BME280;60511;42.686;23.300;2022-12-26T12:06:51;95456.41;;;21.05;30.12
43217;BME280;60511;42.686;23.300;2022-12-26T12:13:59;95420.16;;;20.85;30.27